sensor_id;sensor_type;location;lat;lon;timestamp;P1;durP1;ratioP1;P2;durP2;ratioP2
4202;SDS011;2115;51.038;7.006;2023-06-24T00:01:48;12.13;;;7.60;;
4202;SDS011;2115;51.038;7.006;2023-06-24T00:04:13;12.23;;;8.10;;
4202;SDS011;2115;51.038;7.006;2023-06-24T00:06:40;13.00;;;7.70;;
4202;SDS011;2115;51.038;7.006;2023-06-24T00:09:06;19.37;;;8.27;;
4202;SDS011;2115;51.038;7.006;2023-06-24T00:11:32;16.60;;;8.03;;
4202;SDS011;2115;51.038;7.006;2023-06-24T00:13:58;15.43;;;8.37;;
4202;SDS011;2115;51.038;7.006;2023-06-24T00:16:23;11.57;;;7.20;;
4202;SDS011;2115;51.038;7.006;2023-06-24T00:18:55;13.00;;;8.00;;
4202;SDS011;2115;51.038;7.006;2023-06-24T00:21:25;11.77;;;7.40;;
4202;SDS011;2115;51.038;7.006;2023-06-24T00:23:58;10.73;;;7.53;;
4202;SDS011;2115;51.038;7.006;2023-06-24T00:26:29;21.00;;;7.37;;
4202;SDS011;2115;51.038;7.006;2023-06-24T00:28:54;9.43;;;6.53;;
4202;SDS011;2115;51.038;7.006;2023-06-24T00:31:20;13.73;;;7.10;;
4202;SDS011;2115;51.038;7.006;2023-06-24T00:33:46;14.10;;;6.80;;
4202;SDS011;2115;51.038;7.006;2023-06-24T00:36:11;11.30;;;7.27;;
4202;SDS011;2115;51.038;7.006;2023-06-24T00:38:37;12.17;;;7.17;;
4202;SDS011;2115;51.038;7.006;2023-06-24T00:41:03;10.90;;;7.20;;
4202;SDS011;2115;51.038;7.006;2023-06-24T00:43:29;11.90;;;7.00;;
4202;SDS011;2115;51.038;7.006;2023-06-24T00:45:55;8.07;;;6.30;;
4202;SDS011;2115;51.038;7.006;2023-06-24T00:48:23;22.40;;;7.37;;
4202;SDS011;2115;51.038;7.006;2023-06-24T00:50:49;13.23;;;7.23;;
4202;SDS011;2115;51.038;7.006;2023-06-24T00:53:15;8.90;;;6.30;;
4202;SDS011;2115;51.038;7.006;2023-06-24T00:55:41;15.00;;;6.77;;
4202;SDS011;2115;51.038;7.006;2023-06-24T00:58:07;14.17;;;7.30;;
4202;SDS011;2115;51.038;7.006;2023-06-24T01:00:32;15.87;;;7.33;;
4202;SDS011;2115;51.038;7.006;2023-06-24T01:02:59;12.10;;;6.80;;
4202;SDS011;2115;51.038;7.006;2023-06-24T01:05:25;9.43;;;6.40;;
4202;SDS011;2115;51.038;7.006;2023-06-24T01:07:51;16.33;;;7.00;;
4202;SDS011;2115;51.038;7.006;2023-06-24T01:10:20;16.27;;;6.47;;
4202;SDS011;2115;51.038;7.006;2023-06-24T01:12:47;20.40;;;7.90;;
4202;SDS011;2115;51.038;7.006;2023-06-24T01:15:13;15.43;;;7.00;;
4202;SDS011;2115;51.038;7.006;2023-06-24T01:17:45;14.23;;;6.93;;
4202;SDS011;2115;51.038;7.006;2023-06-24T01:25:59;14.33;;;6.97;;
4202;SDS011;2115;51.038;7.006;2023-06-24T01:37:07;9.13;;;5.83;;
4202;SDS011;2115;51.038;7.006;2023-06-24T01:39:37;14.53;;;6.90;;
4202;SDS011;2115;51.038;7.006;2023-06-24T01:42:07;14.67;;;7.33;;
4202;SDS011;2115;51.038;7.006;2023-06-24T01:44:35;24.30;;;8.10;;
4202;SDS011;2115;51.038;7.006;2023-06-24T01:47:01;10.87;;;7.47;;
4202;SDS011;2115;51.038;7.006;2023-06-24T01:49:28;14.63;;;6.00;;
4202;SDS011;2115;51.038;7.006;2023-06-24T01:51:56;11.07;;;6.73;;
4202;SDS011;2115;51.038;7.006;2023-06-24T01:54:22;17.43;;;7.70;;
4202;SDS011;2115;51.038;7.006;2023-06-24T01:56:49;13.87;;;6.53;;
4202;SDS011;2115;51.038;7.006;2023-06-24T01:59:16;12.70;;;6.83;;
4202;SDS011;2115;51.038;7.006;2023-06-24T02:01:43;13.30;;;7.27;;
4202;SDS011;2115;51.038;7.006;2023-06-24T02:04:08;19.20;;;6.70;;
4202;SDS011;2115;51.038;7.006;2023-06-24T02:06:35;14.83;;;7.20;;
4202;SDS011;2115;51.038;7.006;2023-06-24T02:09:02;16.00;;;7.13;;
4202;SDS011;2115;51.038;7.006;2023-06-24T02:11:29;18.93;;;8.07;;
4202;SDS011;2115;51.038;7.006;2023-06-24T02:13:55;13.07;;;6.90;;
4202;SDS011;2115;51.038;7.006;2023-06-24T02:16:21;12.67;;;7.23;;
4202;SDS011;2115;51.038;7.006;2023-06-24T02:18:47;13.03;;;6.43;;
4202;SDS011;2115;51.038;7.006;2023-06-24T02:21:13;12.60;;;7.37;;
4202;SDS011;2115;51.038;7.006;2023-06-24T02:23:41;23.27;;;7.20;;
4202;SDS011;2115;51.038;7.006;2023-06-24T02:26:07;14.43;;;7.20;;
4202;SDS011;2115;51.038;7.006;2023-06-24T02:28:34;20.47;;;7.90;;
4202;SDS011;2115;51.038;7.006;2023-06-24T02:31:00;14.03;;;7.37;;
4202;SDS011;2115;51.038;7.006;2023-06-24T02:33:26;12.50;;;7.13;;
4202;SDS011;2115;51.038;7.006;2023-06-24T02:35:51;12.20;;;6.70;;
4202;SDS011;2115;51.038;7.006;2023-06-24T02:38:20;11.97;;;6.90;;
4202;SDS011;2115;51.038;7.006;2023-06-24T02:40:45;14.20;;;7.33;;
4202;SDS011;2115;51.038;7.006;2023-06-24T02:43:11;15.83;;;6.90;;
4202;SDS011;2115;51.038;7.006;2023-06-24T02:45:37;10.13;;;6.50;;
4202;SDS011;2115;51.038;7.006;2023-06-24T02:48:03;10.47;;;7.47;;
4202;SDS011;2115;51.038;7.006;2023-06-24T02:50:29;13.70;;;6.90;;
4202;SDS011;2115;51.038;7.006;2023-06-24T02:52:55;15.33;;;7.43;;
4202;SDS011;2115;51.038;7.006;2023-06-24T02:55:22;13.00;;;6.97;;
4202;SDS011;2115;51.038;7.006;2023-06-24T02:57:47;9.57;;;6.90;;
4202;SDS011;2115;51.038;7.006;2023-06-24T03:00:13;9.60;;;6.60;;
4202;SDS011;2115;51.038;7.006;2023-06-24T03:02:40;15.50;;;7.33;;
4202;SDS011;2115;51.038;7.006;2023-06-24T03:05:06;12.23;;;6.40;;
4202;SDS011;2115;51.038;7.006;2023-06-24T03:07:33;16.73;;;7.80;;
4202;SDS011;2115;51.038;7.006;2023-06-24T03:10:04;15.47;;;6.60;;
4202;SDS011;2115;51.038;7.006;2023-06-24T03:12:31;12.90;;;7.80;;
4202;SDS011;2115;51.038;7.006;2023-06-24T03:14:56;20.50;;;7.67;;
4202;SDS011;2115;51.038;7.006;2023-06-24T03:17:22;15.87;;;6.90;;
4202;SDS011;2115;51.038;7.006;2023-06-24T03:19:48;12.13;;;6.97;;
4202;SDS011;2115;51.038;7.006;2023-06-24T03:22:13;16.77;;;8.00;;
4202;SDS011;2115;51.038;7.006;2023-06-24T03:24:38;14.50;;;7.37;;
4202;SDS011;2115;51.038;7.006;2023-06-24T03:27:04;12.77;;;7.07;;
4202;SDS011;2115;51.038;7.006;2023-06-24T03:29:29;23.00;;;8.23;;
4202;SDS011;2115;51.038;7.006;2023-06-24T03:31:55;17.90;;;7.73;;
4202;SDS011;2115;51.038;7.006;2023-06-24T03:34:20;11.53;;;7.77;;
4202;SDS011;2115;51.038;7.006;2023-06-24T03:36:46;9.57;;;6.20;;
4202;SDS011;2115;51.038;7.006;2023-06-24T03:39:11;12.13;;;7.70;;
4202;SDS011;2115;51.038;7.006;2023-06-24T03:41:36;17.63;;;7.57;;
4202;SDS011;2115;51.038;7.006;2023-06-24T03:44:02;15.37;;;7.47;;
4202;SDS011;2115;51.038;7.006;2023-06-24T03:46:27;11.90;;;7.20;;
4202;SDS011;2115;51.038;7.006;2023-06-24T03:48:58;12.23;;;8.10;;
4202;SDS011;2115;51.038;7.006;2023-06-24T03:51:23;10.73;;;7.27;;
4202;SDS011;2115;51.038;7.006;2023-06-24T03:53:49;13.13;;;6.80;;
4202;SDS011;2115;51.038;7.006;2023-06-24T03:56:15;13.30;;;7.43;;
4202;SDS011;2115;51.038;7.006;2023-06-24T03:58:40;18.40;;;7.37;;
4202;SDS011;2115;51.038;7.006;2023-06-24T04:01:06;22.80;;;8.70;;
4202;SDS011;2115;51.038;7.006;2023-06-24T04:03:31;10.43;;;7.00;;
4202;SDS011;2115;51.038;7.006;2023-06-24T04:05:57;16.73;;;7.53;;
4202;SDS011;2115;51.038;7.006;2023-06-24T04:08:23;13.60;;;7.27;;
4202;SDS011;2115;51.038;7.006;2023-06-24T04:10:54;10.20;;;7.40;;
4202;SDS011;2115;51.038;7.006;2023-06-24T04:13:19;12.93;;;7.70;;
4202;SDS011;2115;51.038;7.006;2023-06-24T04:15:45;13.63;;;7.37;;
4202;SDS011;2115;51.038;7.006;2023-06-24T04:18:10;19.97;;;8.50;;
4202;SDS011;2115;51.038;7.006;2023-06-24T04:20:36;20.17;;;8.97;;
4202;SDS011;2115;51.038;7.006;2023-06-24T04:23:01;15.87;;;8.30;;
4202;SDS011;2115;51.038;7.006;2023-06-24T04:25:26;10.50;;;7.50;;
4202;SDS011;2115;51.038;7.006;2023-06-24T04:27:52;13.20;;;7.27;;
4202;SDS011;2115;51.038;7.006;2023-06-24T04:30:17;18.93;;;8.87;;
4202;SDS011;2115;51.038;7.006;2023-06-24T04:32:49;15.83;;;8.40;;
4202;SDS011;2115;51.038;7.006;2023-06-24T04:35:17;19.10;;;8.83;;
4202;SDS011;2115;51.038;7.006;2023-06-24T04:37:42;11.00;;;7.93;;
4202;SDS011;2115;51.038;7.006;2023-06-24T04:40:11;16.10;;;9.47;;
4202;SDS011;2115;51.038;7.006;2023-06-24T04:42:38;21.03;;;9.80;;
4202;SDS011;2115;51.038;7.006;2023-06-24T04:45:04;23.43;;;8.90;;
4202;SDS011;2115;51.038;7.006;2023-06-24T04:47:30;13.10;;;8.37;;
4202;SDS011;2115;51.038;7.006;2023-06-24T04:49:55;15.33;;;7.87;;
4202;SDS011;2115;51.038;7.006;2023-06-24T04:52:22;14.60;;;8.70;;
4202;SDS011;2115;51.038;7.006;2023-06-24T04:54:51;13.60;;;9.27;;
4202;SDS011;2115;51.038;7.006;2023-06-24T05:00:08;19.57;;;9.87;;
4202;SDS011;2115;51.038;7.006;2023-06-24T05:02:34;13.00;;;8.67;;
4202;SDS011;2115;51.038;7.006;2023-06-24T05:04:59;18.40;;;9.20;;
4202;SDS011;2115;51.038;7.006;2023-06-24T05:07:24;19.40;;;9.40;;
4202;SDS011;2115;51.038;7.006;2023-06-24T05:09:50;14.67;;;8.87;;
4202;SDS011;2115;51.038;7.006;2023-06-24T05:12:16;12.70;;;8.77;;
4202;SDS011;2115;51.038;7.006;2023-06-24T05:14:42;15.93;;;8.83;;
4202;SDS011;2115;51.038;7.006;2023-06-24T05:17:07;18.20;;;7.70;;
4202;SDS011;2115;51.038;7.006;2023-06-24T05:19:32;14.17;;;8.10;;
4202;SDS011;2115;51.038;7.006;2023-06-24T05:21:58;14.37;;;8.10;;
4202;SDS011;2115;51.038;7.006;2023-06-24T05:24:23;13.20;;;7.80;;
4202;SDS011;2115;51.038;7.006;2023-06-24T05:26:49;25.87;;;8.87;;
4202;SDS011;2115;51.038;7.006;2023-06-24T05:29:16;15.07;;;8.47;;
4202;SDS011;2115;51.038;7.006;2023-06-24T05:31:42;21.23;;;9.40;;
4202;SDS011;2115;51.038;7.006;2023-06-24T05:34:07;26.53;;;10.80;;
4202;SDS011;2115;51.038;7.006;2023-06-24T05:36:34;18.57;;;9.63;;
4202;SDS011;2115;51.038;7.006;2023-06-24T05:38:59;13.33;;;9.33;;
4202;SDS011;2115;51.038;7.006;2023-06-24T05:41:25;20.67;;;8.10;;
4202;SDS011;2115;51.038;7.006;2023-06-24T05:44:00;14.90;;;9.30;;
4202;SDS011;2115;51.038;7.006;2023-06-24T05:46:30;11.57;;;9.00;;
4202;SDS011;2115;51.038;7.006;2023-06-24T05:48:55;12.80;;;8.60;;
4202;SDS011;2115;51.038;7.006;2023-06-24T05:51:21;14.73;;;9.03;;
4202;SDS011;2115;51.038;7.006;2023-06-24T05:53:46;28.03;;;12.60;;
4202;SDS011;2115;51.038;7.006;2023-06-24T05:56:12;19.90;;;9.13;;
4202;SDS011;2115;51.038;7.006;2023-06-24T05:58:37;16.50;;;9.43;;
4202;SDS011;2115;51.038;7.006;2023-06-24T06:01:02;13.87;;;9.00;;
4202;SDS011;2115;51.038;7.006;2023-06-24T06:03:28;13.73;;;8.83;;
4202;SDS011;2115;51.038;7.006;2023-06-24T06:05:53;17.00;;;9.20;;
4202;SDS011;2115;51.038;7.006;2023-06-24T06:08:19;16.00;;;8.80;;
4202;SDS011;2115;51.038;7.006;2023-06-24T06:10:44;19.07;;;9.17;;
4202;SDS011;2115;51.038;7.006;2023-06-24T06:13:09;24.20;;;9.80;;
4202;SDS011;2115;51.038;7.006;2023-06-24T06:15:35;16.03;;;9.60;;
4202;SDS011;2115;51.038;7.006;2023-06-24T06:18:00;18.77;;;9.27;;
4202;SDS011;2115;51.038;7.006;2023-06-24T06:20:25;16.63;;;10.17;;
4202;SDS011;2115;51.038;7.006;2023-06-24T06:22:51;12.97;;;8.60;;
4202;SDS011;2115;51.038;7.006;2023-06-24T06:25:16;15.87;;;9.90;;
4202;SDS011;2115;51.038;7.006;2023-06-24T06:27:42;18.53;;;10.27;;
4202;SDS011;2115;51.038;7.006;2023-06-24T06:30:07;14.37;;;8.33;;
4202;SDS011;2115;51.038;7.006;2023-06-24T06:32:33;22.90;;;9.40;;
4202;SDS011;2115;51.038;7.006;2023-06-24T06:34:58;23.27;;;10.47;;
4202;SDS011;2115;51.038;7.006;2023-06-24T06:37:24;20.33;;;8.80;;
4202;SDS011;2115;51.038;7.006;2023-06-24T06:39:49;19.23;;;9.17;;
4202;SDS011;2115;51.038;7.006;2023-06-24T06:42:15;16.70;;;10.07;;
4202;SDS011;2115;51.038;7.006;2023-06-24T06:44:41;22.80;;;9.23;;
4202;SDS011;2115;51.038;7.006;2023-06-24T06:47:06;33.60;;;10.67;;
4202;SDS011;2115;51.038;7.006;2023-06-24T06:49:31;20.97;;;11.27;;
4202;SDS011;2115;51.038;7.006;2023-06-24T06:51:57;27.60;;;10.37;;
4202;SDS011;2115;51.038;7.006;2023-06-24T06:54:22;17.70;;;9.40;;
4202;SDS011;2115;51.038;7.006;2023-06-24T06:56:48;19.90;;;11.43;;
4202;SDS011;2115;51.038;7.006;2023-06-24T06:59:13;19.33;;;10.50;;
4202;SDS011;2115;51.038;7.006;2023-06-24T07:01:39;27.23;;;11.20;;
4202;SDS011;2115;51.038;7.006;2023-06-24T07:04:04;17.30;;;9.03;;
4202;SDS011;2115;51.038;7.006;2023-06-24T07:06:30;21.13;;;11.47;;
4202;SDS011;2115;51.038;7.006;2023-06-24T07:08:57;19.50;;;10.50;;
4202;SDS011;2115;51.038;7.006;2023-06-24T07:11:23;16.27;;;9.43;;
4202;SDS011;2115;51.038;7.006;2023-06-24T07:13:48;17.40;;;10.10;;
4202;SDS011;2115;51.038;7.006;2023-06-24T07:16:16;23.10;;;10.67;;
4202;SDS011;2115;51.038;7.006;2023-06-24T07:18:42;21.80;;;11.10;;
4202;SDS011;2115;51.038;7.006;2023-06-24T07:21:07;27.63;;;11.50;;
4202;SDS011;2115;51.038;7.006;2023-06-24T07:23:33;18.13;;;9.90;;
4202;SDS011;2115;51.038;7.006;2023-06-24T07:25:58;14.07;;;9.70;;
4202;SDS011;2115;51.038;7.006;2023-06-24T07:28:23;18.10;;;10.43;;
4202;SDS011;2115;51.038;7.006;2023-06-24T07:30:49;14.50;;;9.20;;
4202;SDS011;2115;51.038;7.006;2023-06-24T07:33:14;21.73;;;10.93;;
4202;SDS011;2115;51.038;7.006;2023-06-24T07:35:40;22.03;;;11.53;;
4202;SDS011;2115;51.038;7.006;2023-06-24T07:38:05;24.70;;;11.10;;
4202;SDS011;2115;51.038;7.006;2023-06-24T07:40:31;20.53;;;11.10;;
4202;SDS011;2115;51.038;7.006;2023-06-24T07:42:56;22.40;;;10.40;;
4202;SDS011;2115;51.038;7.006;2023-06-24T07:45:22;23.00;;;11.30;;
4202;SDS011;2115;51.038;7.006;2023-06-24T07:47:48;25.50;;;11.93;;
4202;SDS011;2115;51.038;7.006;2023-06-24T07:50:13;16.47;;;10.33;;
4202;SDS011;2115;51.038;7.006;2023-06-24T07:52:39;25.53;;;11.50;;
4202;SDS011;2115;51.038;7.006;2023-06-24T07:55:05;18.10;;;10.40;;
4202;SDS011;2115;51.038;7.006;2023-06-24T07:57:31;24.97;;;11.67;;
4202;SDS011;2115;51.038;7.006;2023-06-24T07:59:56;24.83;;;10.70;;
4202;SDS011;2115;51.038;7.006;2023-06-24T08:02:21;19.07;;;10.80;;
4202;SDS011;2115;51.038;7.006;2023-06-24T08:04:49;18.67;;;10.47;;
4202;SDS011;2115;51.038;7.006;2023-06-24T08:07:14;22.40;;;11.37;;
4202;SDS011;2115;51.038;7.006;2023-06-24T08:09:40;26.60;;;11.13;;
4202;SDS011;2115;51.038;7.006;2023-06-24T08:12:06;22.43;;;12.17;;
4202;SDS011;2115;51.038;7.006;2023-06-24T08:14:32;23.57;;;10.70;;
4202;SDS011;2115;51.038;7.006;2023-06-24T08:16:57;24.23;;;11.43;;
4202;SDS011;2115;51.038;7.006;2023-06-24T08:19:29;20.50;;;12.47;;
4202;SDS011;2115;51.038;7.006;2023-06-24T08:21:55;24.73;;;12.47;;
4202;SDS011;2115;51.038;7.006;2023-06-24T08:24:20;29.63;;;11.63;;
4202;SDS011;2115;51.038;7.006;2023-06-24T08:29:49;29.67;;;13.37;;
4202;SDS011;2115;51.038;7.006;2023-06-24T08:32:14;20.53;;;10.30;;
4202;SDS011;2115;51.038;7.006;2023-06-24T08:34:40;25.47;;;13.53;;
4202;SDS011;2115;51.038;7.006;2023-06-24T08:37:05;23.93;;;11.40;;
4202;SDS011;2115;51.038;7.006;2023-06-24T08:39:30;22.03;;;13.60;;
4202;SDS011;2115;51.038;7.006;2023-06-24T08:41:56;29.03;;;12.97;;
4202;SDS011;2115;51.038;7.006;2023-06-24T08:44:21;24.30;;;13.00;;
4202;SDS011;2115;51.038;7.006;2023-06-24T08:46:47;26.20;;;14.43;;
4202;SDS011;2115;51.038;7.006;2023-06-24T08:51:49;30.37;;;12.70;;
4202;SDS011;2115;51.038;7.006;2023-06-24T08:54:16;28.47;;;13.97;;
4202;SDS011;2115;51.038;7.006;2023-06-24T08:56:44;26.03;;;13.40;;
4202;SDS011;2115;51.038;7.006;2023-06-24T08:59:09;22.60;;;11.93;;
4202;SDS011;2115;51.038;7.006;2023-06-24T09:01:35;25.67;;;13.20;;
4202;SDS011;2115;51.038;7.006;2023-06-24T09:04:00;20.23;;;11.97;;
4202;SDS011;2115;51.038;7.006;2023-06-24T09:06:26;23.47;;;12.90;;
4202;SDS011;2115;51.038;7.006;2023-06-24T09:08:52;24.90;;;12.03;;
4202;SDS011;2115;51.038;7.006;2023-06-24T09:11:21;21.80;;;11.13;;
4202;SDS011;2115;51.038;7.006;2023-06-24T09:13:50;22.37;;;11.47;;
4202;SDS011;2115;51.038;7.006;2023-06-24T09:16:19;26.27;;;11.97;;
4202;SDS011;2115;51.038;7.006;2023-06-24T09:18:48;25.10;;;11.60;;
4202;SDS011;2115;51.038;7.006;2023-06-24T09:21:20;20.80;;;10.40;;
4202;SDS011;2115;51.038;7.006;2023-06-24T09:23:53;36.63;;;11.90;;
4202;SDS011;2115;51.038;7.006;2023-06-24T09:26:19;25.40;;;10.50;;
4202;SDS011;2115;51.038;7.006;2023-06-24T09:28:47;19.47;;;9.30;;
4202;SDS011;2115;51.038;7.006;2023-06-24T09:31:14;29.00;;;11.20;;
4202;SDS011;2115;51.038;7.006;2023-06-24T09:33:39;29.53;;;10.97;;
4202;SDS011;2115;51.038;7.006;2023-06-24T09:36:05;23.80;;;9.70;;
4202;SDS011;2115;51.038;7.006;2023-06-24T09:38:36;42.20;;;12.90;;
4202;SDS011;2115;51.038;7.006;2023-06-24T09:41:03;24.90;;;11.77;;
4202;SDS011;2115;51.038;7.006;2023-06-24T09:43:30;16.10;;;10.37;;
4202;SDS011;2115;51.038;7.006;2023-06-24T09:46:00;15.37;;;8.30;;
4202;SDS011;2115;51.038;7.006;2023-06-24T09:48:26;17.70;;;7.43;;
4202;SDS011;2115;51.038;7.006;2023-06-24T09:50:52;20.93;;;8.83;;
4202;SDS011;2115;51.038;7.006;2023-06-24T09:53:18;13.93;;;7.47;;
4202;SDS011;2115;51.038;7.006;2023-06-24T09:55:43;23.40;;;9.47;;
4202;SDS011;2115;51.038;7.006;2023-06-24T09:58:11;18.20;;;8.60;;
4202;SDS011;2115;51.038;7.006;2023-06-24T10:00:38;22.53;;;9.10;;
4202;SDS011;2115;51.038;7.006;2023-06-24T10:03:04;23.83;;;9.17;;
4202;SDS011;2115;51.038;7.006;2023-06-24T10:05:30;56.17;;;11.03;;
4202;SDS011;2115;51.038;7.006;2023-06-24T10:07:55;19.70;;;8.20;;
4202;SDS011;2115;51.038;7.006;2023-06-24T10:10:20;25.90;;;9.20;;
4202;SDS011;2115;51.038;7.006;2023-06-24T10:12:46;17.93;;;8.20;;
4202;SDS011;2115;51.038;7.006;2023-06-24T10:15:11;38.63;;;9.10;;
4202;SDS011;2115;51.038;7.006;2023-06-24T10:17:37;19.20;;;7.33;;
4202;SDS011;2115;51.038;7.006;2023-06-24T10:20:05;27.13;;;7.63;;
4202;SDS011;2115;51.038;7.006;2023-06-24T10:22:32;21.37;;;7.53;;
4202;SDS011;2115;51.038;7.006;2023-06-24T10:25:00;14.37;;;5.90;;
4202;SDS011;2115;51.038;7.006;2023-06-24T10:27:26;11.70;;;4.97;;
4202;SDS011;2115;51.038;7.006;2023-06-24T10:29:57;16.63;;;5.83;;
4202;SDS011;2115;51.038;7.006;2023-06-24T10:32:40;24.50;;;5.97;;
4202;SDS011;2115;51.038;7.006;2023-06-24T10:35:30;17.50;;;6.73;;
4202;SDS011;2115;51.038;7.006;2023-06-24T10:38:00;8.97;;;4.33;;
4202;SDS011;2115;51.038;7.006;2023-06-24T10:40:47;10.70;;;4.10;;
4202;SDS011;2115;51.038;7.006;2023-06-24T10:45:50;10.87;;;4.57;;
4202;SDS011;2115;51.038;7.006;2023-06-24T10:48:20;14.80;;;5.17;;
4202;SDS011;2115;51.038;7.006;2023-06-24T10:50:46;12.02;;;4.35;;
4202;SDS011;2115;51.038;7.006;2023-06-24T10:53:12;11.53;;;4.20;;
4202;SDS011;2115;51.038;7.006;2023-06-24T10:55:38;16.83;;;5.25;;
4202;SDS011;2115;51.038;7.006;2023-06-24T10:58:07;15.35;;;5.20;;
4202;SDS011;2115;51.038;7.006;2023-06-24T11:00:34;11.37;;;4.27;;
4202;SDS011;2115;51.038;7.006;2023-06-24T11:03:09;11.50;;;4.32;;
4202;SDS011;2115;51.038;7.006;2023-06-24T11:05:41;12.02;;;5.22;;
4202;SDS011;2115;51.038;7.006;2023-06-24T11:08:08;11.75;;;4.22;;
4202;SDS011;2115;51.038;7.006;2023-06-24T11:10:41;12.20;;;5.07;;
4202;SDS011;2115;51.038;7.006;2023-06-24T11:13:13;17.05;;;5.38;;
4202;SDS011;2115;51.038;7.006;2023-06-24T11:15:39;12.18;;;4.90;;
4202;SDS011;2115;51.038;7.006;2023-06-24T11:18:07;11.50;;;4.63;;
4202;SDS011;2115;51.038;7.006;2023-06-24T11:20:34;11.45;;;4.78;;
4202;SDS011;2115;51.038;7.006;2023-06-24T11:23:01;11.05;;;4.65;;
4202;SDS011;2115;51.038;7.006;2023-06-24T11:25:26;13.35;;;4.85;;
4202;SDS011;2115;51.038;7.006;2023-06-24T11:27:52;12.98;;;4.40;;
4202;SDS011;2115;51.038;7.006;2023-06-24T11:30:18;8.50;;;3.78;;
4202;SDS011;2115;51.038;7.006;2023-06-24T11:32:44;11.70;;;4.03;;
4202;SDS011;2115;51.038;7.006;2023-06-24T11:35:11;6.93;;;3.90;;
4202;SDS011;2115;51.038;7.006;2023-06-24T11:37:40;12.20;;;4.63;;
4202;SDS011;2115;51.038;7.006;2023-06-24T11:40:06;8.20;;;3.78;;
4202;SDS011;2115;51.038;7.006;2023-06-24T11:42:36;11.18;;;3.90;;
4202;SDS011;2115;51.038;7.006;2023-06-24T11:45:03;10.25;;;3.38;;
4202;SDS011;2115;51.038;7.006;2023-06-24T11:47:36;12.57;;;4.05;;
4202;SDS011;2115;51.038;7.006;2023-06-24T11:50:03;9.77;;;3.45;;
4202;SDS011;2115;51.038;7.006;2023-06-24T11:55:27;6.60;;;2.88;;
4202;SDS011;2115;51.038;7.006;2023-06-24T12:00:27;9.70;;;3.90;;
4202;SDS011;2115;51.038;7.006;2023-06-24T12:03:06;7.38;;;2.97;;
4202;SDS011;2115;51.038;7.006;2023-06-24T12:05:34;5.03;;;3.05;;
4202;SDS011;2115;51.038;7.006;2023-06-24T12:08:01;9.00;;;3.22;;
4202;SDS011;2115;51.038;7.006;2023-06-24T12:10:31;8.98;;;3.72;;
4202;SDS011;2115;51.038;7.006;2023-06-24T12:12:58;7.50;;;3.65;;
4202;SDS011;2115;51.038;7.006;2023-06-24T12:15:24;5.72;;;3.03;;
4202;SDS011;2115;51.038;7.006;2023-06-24T12:17:50;9.38;;;4.25;;
4202;SDS011;2115;51.038;7.006;2023-06-24T12:20:15;4.00;;;3.08;;
4202;SDS011;2115;51.038;7.006;2023-06-24T12:22:42;7.80;;;3.88;;
4202;SDS011;2115;51.038;7.006;2023-06-24T12:25:08;6.75;;;3.20;;
4202;SDS011;2115;51.038;7.006;2023-06-24T12:27:34;7.22;;;3.70;;
4202;SDS011;2115;51.038;7.006;2023-06-24T12:29:59;8.95;;;3.92;;
4202;SDS011;2115;51.038;7.006;2023-06-24T12:32:25;4.80;;;2.60;;
4202;SDS011;2115;51.038;7.006;2023-06-24T12:34:51;7.78;;;3.45;;
4202;SDS011;2115;51.038;7.006;2023-06-24T12:37:16;9.30;;;3.75;;
4202;SDS011;2115;51.038;7.006;2023-06-24T12:39:42;6.10;;;3.60;;
4202;SDS011;2115;51.038;7.006;2023-06-24T12:42:08;5.53;;;2.85;;
4202;SDS011;2115;51.038;7.006;2023-06-24T12:44:34;8.85;;;3.53;;
4202;SDS011;2115;51.038;7.006;2023-06-24T12:46:59;9.63;;;3.90;;
4202;SDS011;2115;51.038;7.006;2023-06-24T12:49:24;5.60;;;3.60;;
4202;SDS011;2115;51.038;7.006;2023-06-24T12:51:50;5.65;;;2.67;;
4202;SDS011;2115;51.038;7.006;2023-06-24T12:54:15;5.20;;;2.90;;
4202;SDS011;2115;51.038;7.006;2023-06-24T12:56:41;10.35;;;3.63;;
4202;SDS011;2115;51.038;7.006;2023-06-24T12:59:06;5.35;;;3.65;;
4202;SDS011;2115;51.038;7.006;2023-06-24T13:01:31;10.50;;;3.50;;
4202;SDS011;2115;51.038;7.006;2023-06-24T13:03:57;9.63;;;3.80;;
4202;SDS011;2115;51.038;7.006;2023-06-24T13:06:23;3.70;;;3.17;;
4202;SDS011;2115;51.038;7.006;2023-06-24T13:08:48;8.32;;;4.13;;
4202;SDS011;2115;51.038;7.006;2023-06-24T13:11:13;7.75;;;3.38;;
4202;SDS011;2115;51.038;7.006;2023-06-24T13:13:39;5.47;;;3.20;;
4202;SDS011;2115;51.038;7.006;2023-06-24T13:16:04;8.30;;;3.65;;
4202;SDS011;2115;51.038;7.006;2023-06-24T13:18:29;7.47;;;3.40;;
4202;SDS011;2115;51.038;7.006;2023-06-24T13:20:55;8.40;;;3.58;;
4202;SDS011;2115;51.038;7.006;2023-06-24T13:23:20;4.97;;;2.88;;
4202;SDS011;2115;51.038;7.006;2023-06-24T13:25:45;11.75;;;4.05;;
4202;SDS011;2115;51.038;7.006;2023-06-24T13:28:11;5.28;;;3.08;;
4202;SDS011;2115;51.038;7.006;2023-06-24T13:30:36;14.45;;;3.63;;
4202;SDS011;2115;51.038;7.006;2023-06-24T13:33:02;7.00;;;3.70;;
4202;SDS011;2115;51.038;7.006;2023-06-24T13:35:27;5.45;;;3.42;;
4202;SDS011;2115;51.038;7.006;2023-06-24T13:37:53;4.97;;;3.20;;
4202;SDS011;2115;51.038;7.006;2023-06-24T13:40:18;10.65;;;4.20;;
4202;SDS011;2115;51.038;7.006;2023-06-24T13:42:44;10.85;;;3.63;;
4202;SDS011;2115;51.038;7.006;2023-06-24T13:45:09;7.03;;;3.47;;
4202;SDS011;2115;51.038;7.006;2023-06-24T13:47:35;19.42;;;4.57;;
4202;SDS011;2115;51.038;7.006;2023-06-24T13:50:01;4.22;;;2.63;;
4202;SDS011;2115;51.038;7.006;2023-06-24T13:52:27;9.90;;;3.50;;
4202;SDS011;2115;51.038;7.006;2023-06-24T13:54:53;9.63;;;3.30;;
4202;SDS011;2115;51.038;7.006;2023-06-24T13:57:18;9.13;;;3.45;;
4202;SDS011;2115;51.038;7.006;2023-06-24T13:59:44;13.05;;;3.85;;
4202;SDS011;2115;51.038;7.006;2023-06-24T14:02:09;10.20;;;3.83;;
4202;SDS011;2115;51.038;7.006;2023-06-24T14:04:36;9.50;;;3.75;;
4202;SDS011;2115;51.038;7.006;2023-06-24T14:07:05;6.22;;;2.80;;
4202;SDS011;2115;51.038;7.006;2023-06-24T14:09:31;5.38;;;2.67;;
4202;SDS011;2115;51.038;7.006;2023-06-24T14:11:56;4.53;;;2.65;;
4202;SDS011;2115;51.038;7.006;2023-06-24T14:14:22;4.93;;;2.83;;
4202;SDS011;2115;51.038;7.006;2023-06-24T14:16:47;8.55;;;3.38;;
4202;SDS011;2115;51.038;7.006;2023-06-24T14:19:13;7.13;;;2.55;;
4202;SDS011;2115;51.038;7.006;2023-06-24T14:21:38;6.60;;;3.53;;
4202;SDS011;2115;51.038;7.006;2023-06-24T14:24:07;5.13;;;2.90;;
4202;SDS011;2115;51.038;7.006;2023-06-24T14:26:35;5.07;;;2.92;;
4202;SDS011;2115;51.038;7.006;2023-06-24T14:29:00;10.98;;;3.67;;
4202;SDS011;2115;51.038;7.006;2023-06-24T14:31:26;7.60;;;2.80;;
4202;SDS011;2115;51.038;7.006;2023-06-24T14:33:51;5.82;;;2.67;;
4202;SDS011;2115;51.038;7.006;2023-06-24T14:36:17;2.60;;;2.20;;
4202;SDS011;2115;51.038;7.006;2023-06-24T14:38:42;9.63;;;2.92;;
4202;SDS011;2115;51.038;7.006;2023-06-24T14:41:09;5.75;;;2.67;;
4202;SDS011;2115;51.038;7.006;2023-06-24T14:43:35;10.45;;;3.95;;
4202;SDS011;2115;51.038;7.006;2023-06-24T14:46:00;14.23;;;2.70;;
4202;SDS011;2115;51.038;7.006;2023-06-24T14:48:26;2.60;;;2.30;;
4202;SDS011;2115;51.038;7.006;2023-06-24T14:50:51;3.35;;;2.13;;
4202;SDS011;2115;51.038;7.006;2023-06-24T14:53:16;2.80;;;2.10;;
4202;SDS011;2115;51.038;7.006;2023-06-24T14:55:42;6.13;;;2.78;;
4202;SDS011;2115;51.038;7.006;2023-06-24T14:58:07;2.75;;;1.63;;
4202;SDS011;2115;51.038;7.006;2023-06-24T15:00:32;6.72;;;2.92;;
4202;SDS011;2115;51.038;7.006;2023-06-24T15:02:58;5.35;;;2.97;;
4202;SDS011;2115;51.038;7.006;2023-06-24T15:05:23;7.75;;;2.72;;
4202;SDS011;2115;51.038;7.006;2023-06-24T15:07:49;3.70;;;1.90;;
4202;SDS011;2115;51.038;7.006;2023-06-24T15:10:14;3.70;;;2.03;;
4202;SDS011;2115;51.038;7.006;2023-06-24T15:12:39;11.73;;;3.80;;
4202;SDS011;2115;51.038;7.006;2023-06-24T15:15:05;15.98;;;2.95;;
4202;SDS011;2115;51.038;7.006;2023-06-24T15:17:31;7.68;;;2.42;;
4202;SDS011;2115;51.038;7.006;2023-06-24T15:19:59;12.90;;;3.08;;
4202;SDS011;2115;51.038;7.006;2023-06-24T15:22:25;10.20;;;2.20;;
4202;SDS011;2115;51.038;7.006;2023-06-24T15:24:50;8.00;;;2.72;;
4202;SDS011;2115;51.038;7.006;2023-06-24T15:27:16;5.00;;;2.38;;
4202;SDS011;2115;51.038;7.006;2023-06-24T15:29:41;6.53;;;2.70;;